Time;durP1;ratioP1;P1;durP2;ratioP2;P2;SDS_P1;SDS_P2;PMS_P1;PMS_P2;Temp;Humidity;BMP_temperature;BMP_pressure;BME280_temperature;BME280_humidity;BME280_pressure;Samples;Min_cycle;Max_cycle;Signal;HPM_P1;HPM_P2
2022/11/03 00:02:19;;;;;;;0.10;0.10;;;;;;;11.13;91.97;101410.75;5008743;28;20109;-74
2022/11/03 00:04:44;;;;;;;0.10;0.10;;;;;;;11.13;91.36;101403.53;5005047;28;20029;-73
2022/11/03 00:07:09;;;;;;;0.10;0.10;;;;;;;11.19;90.98;101396.88;5005928;28;20044;-78
2022/11/03 00:09:35;;;;;;;0.10;0.10;;;;;;;11.30;90.70;101418.44;5027543;28;20041;-74
2022/11/03 00:12:00;;;;;;;0.10;0.10;;;;;;;11.19;89.77;101368.16;5008994;28;20021;-75
2022/11/03 00:14:26;;;;;;;0.10;0.10;;;;;;;11.07;91.32;101387.88;5006914;28;20022;-76
2022/11/03 00:16:51;;;;;;;0.10;0.10;;;;;;;11.07;90.42;101372.59;5026057;28;20033;-74
2022/11/03 00:19:17;;;;;;;0.20;0.20;;;;;;;11.11;90.90;101367.88;5026902;28;20028;-75
2022/11/03 00:21:43;;;;;;;0.10;0.10;;;;;;;11.07;91.72;101395.94;5025119;28;20030;-73
2022/11/03 00:24:08;;;;;;;0.10;0.10;;;;;;;11.19;90.97;101386.97;5008935;28;20102;-73
2022/11/03 00:26:34;;;;;;;0.10;0.10;;;;;;;11.28;90.43;101366.63;5024684;28;20034;-74
2022/11/03 00:29:05;;;;;;;0.10;0.10;;;;;;;11.10;90.44;101366.16;5007956;28;20040;-76
2022/11/03 00:31:32;;;;;;;0.10;0.10;;;;;;;11.30;90.61;101380.81;5025436;28;20029;-75
2022/11/03 00:33:58;;;;;;;0.10;0.10;;;;;;;11.08;91.31;101390.44;5026442;28;20083;-75
2022/11/03 00:36:26;;;;;;;0.10;0.10;;;;;;;11.22;89.34;101359.88;5025994;28;20092;-74
2022/11/03 00:38:51;;;;;;;0.10;0.10;;;;;;;11.22;90.49;101375.16;5022363;28;20033;-75
2022/11/03 00:41:19;;;;;;;0.10;0.10;;;;;;;11.33;89.41;101372.53;5026738;28;20036;-78
2022/11/03 00:43:44;;;;;;;0.10;0.10;;;;;;;11.15;89.88;101345.16;5009234;28;20033;-75
2022/11/03 00:46:10;;;;;;;0.10;0.10;;;;;;;11.06;90.46;101338.63;5004509;28;20037;-75
2022/11/03 00:48:36;;;;;;;0.10;0.10;;;;;;;11.02;91.53;101358.63;5006008;28;20560;-76
2022/11/03 00:51:19;;;;;;;0.10;0.10;;;;;;;11.05;91.12;101350.34;5009378;28;20045;-74
2022/11/03 00:53:53;;;;;;;0.10;0.10;;;;;;;11.03;91.49;101340.69;5008331;28;20036;-75
2022/11/03 00:56:21;;;;;;;0.10;0.10;;;;;;;11.18;90.98;101341.41;5025142;28;20112;-77
2022/11/03 00:58:46;;;;;;;0.10;0.10;;;;;;;11.17;89.81;101328.94;5007164;28;20605;-74
2022/11/03 01:01:19;;;;;;;0.10;0.10;;;;;;;11.12;91.21;101337.34;5024874;28;20022;-78
2022/11/03 01:06:50;;;;;;;0.10;0.10;;;;;;;11.13;91.09;101320.22;5008319;28;20554;-75
2022/11/03 01:09:22;;;;;;;0.10;0.10;;;;;;;11.46;89.79;101318.72;5025034;28;20033;-78
2022/11/03 01:12:02;;;;;;;0.10;0.10;;;;;;;11.22;90.83;101322.25;5021239;28;20124;-73
2022/11/03 01:14:35;;;;;;;0.10;0.10;;;;;;;11.06;91.29;101311.75;5022594;28;20021;-76
2022/11/03 01:17:03;;;;;;;0.10;0.10;;;;;;;11.34;90.17;101317.78;5024681;28;20056;-75
2022/11/03 01:19:28;;;;;;;0.10;0.10;;;;;;;11.08;90.98;101290.16;5022801;28;20037;-76
2022/11/03 01:21:54;;;;;;;0.10;0.10;;;;;;;11.40;89.70;101306.59;5024118;28;20032;-74
2022/11/03 01:24:20;;;;;;;0.10;0.10;;;;;;;11.54;89.77;101302.00;5028238;28;20044;-77
2022/11/03 01:26:45;;;;;;;0.10;0.10;;;;;;;11.55;89.59;101309.09;4987705;28;20033;-76
2022/11/03 01:29:10;;;;;;;0.10;0.10;;;;;;;11.22;91.02;101292.69;4992323;28;20033;-76
2022/11/03 01:31:36;;;;;;;0.10;0.10;;;;;;;11.34;90.15;101282.84;5023897;28;20117;-77
2022/11/03 01:34:01;;;;;;;0.10;0.10;;;;;;;11.20;90.59;101269.59;5003347;28;20033;-73
2022/11/03 01:36:26;;;;;;;0.10;0.10;;;;;;;11.30;90.07;101264.38;5027656;28;20111;-78
2022/11/03 01:38:54;;;;;;;0.10;0.10;;;;;;;11.36;90.02;101283.59;5024317;28;20036;-77
2022/11/03 01:41:22;;;;;;;0.10;0.10;;;;;;;11.19;91.75;101281.31;5004046;28;20039;-75
2022/11/03 01:44:11;;;;;;;0.10;0.10;;;;;;;11.20;92.22;101277.66;5025122;28;20022;-77
2022/11/03 01:46:59;;;;;;;0.10;0.10;;;;;;;11.11;92.46;101268.44;5009164;28;20041;-75
2022/11/03 01:49:31;;;;;;;0.10;0.10;;;;;;;11.18;91.52;101280.44;5022455;28;20103;-75
2022/11/03 01:52:03;;;;;;;0.10;0.10;;;;;;;11.24;91.54;101255.78;5019946;28;20021;-77
2022/11/03 01:54:29;;;;;;;0.10;0.10;;;;;;;11.04;92.81;101256.41;5018926;28;20113;-76
2022/11/03 01:56:56;;;;;;;0.10;0.10;;;;;;;10.99;92.69;101242.44;5006866;28;20036;-78
2022/11/03 01:59:22;;;;;;;0.10;0.10;;;;;;;10.83;94.65;101254.34;5005475;28;20025;-76
2022/11/03 02:01:48;;;;;;;0.10;0.10;;;;;;;10.82;94.71;101246.38;5005866;28;20035;-78
2022/11/03 02:04:21;;;;;;;0.10;0.10;;;;;;;10.89;94.67;101251.16;5024970;28;20022;-74
2022/11/03 02:06:51;;;;;;;0.10;0.10;;;;;;;10.40;96.20;101222.47;4988543;28;20029;-75
2022/11/03 02:09:17;;;;;;;0.10;0.10;;;;;;;10.49;97.16;101227.22;5002917;28;20547;-76
2022/11/03 02:14:26;;;;;;;0.10;0.10;;;;;;;10.47;97.58;101234.50;5017802;28;20036;-76
2022/11/03 02:16:54;;;;;;;0.10;0.10;;;;;;;10.48;96.82;101238.91;5004379;28;20393;-75
2022/11/03 02:19:36;;;;;;;0.10;0.10;;;;;;;10.58;97.49;101239.09;5005310;28;20033;-74
2022/11/03 02:22:29;;;;;;;0.10;0.10;;;;;;;10.36;97.79;101219.13;5006257;28;20060;-78
2022/11/03 02:25:25;;;;;;;0.10;0.10;;;;;;;10.41;98.18;101227.75;5004761;28;20040;-79
2022/11/03 02:27:51;;;;;;;0.10;0.10;;;;;;;10.29;98.09;101197.25;5024602;28;20053;-78
2022/11/03 02:30:17;;;;;;;0.10;0.10;;;;;;;10.39;97.78;101210.91;5029512;28;20630;-79
2022/11/03 02:33:05;;;;;;;0.10;0.10;;;;;;;10.34;98.83;101223.75;4987233;28;20037;-77
2022/11/03 02:35:37;;;;;;;0.10;0.10;;;;;;;10.04;99.07;101184.69;5004871;28;20179;-77
2022/11/03 02:38:05;;;;;;;0.20;0.20;;;;;;;10.32;98.64;101183.63;5022018;28;20032;-76
2022/11/03 02:40:33;;;;;;;0.10;0.10;;;;;;;10.46;99.07;101212.16;5016737;28;20400;-76
2022/11/03 02:42:59;;;;;;;0.10;0.10;;;;;;;10.31;99.45;101206.06;5016369;28;20517;-76
2022/11/03 02:45:25;;;;;;;0.10;0.10;;;;;;;10.34;98.98;101189.69;5001440;28;20039;-74
2022/11/03 02:47:54;;;;;;;0.10;0.10;;;;;;;10.44;98.65;101199.81;5002872;28;20040;-76
2022/11/03 02:50:21;;;;;;;0.10;0.10;;;;;;;10.31;100.00;101200.69;5005432;28;20036;-76
2022/11/03 02:52:47;;;;;;;0.10;0.10;;;;;;;10.16;100.00;101191.03;5001850;28;20032;-80
2022/11/03 02:55:28;;;;;;;0.10;0.10;;;;;;;10.49;98.79;101162.78;4987760;28;20384;-76
2022/11/03 02:58:00;;;;;;;0.10;0.10;;;;;;;10.74;97.84;101180.63;5023296;28;20507;-78
2022/11/03 03:00:26;;;;;;;0.10;0.10;;;;;;;10.26;100.00;101167.94;5003013;28;20033;-77
2022/11/03 03:02:57;;;;;;;0.10;0.10;;;;;;;10.45;100.00;101183.63;5001204;28;20029;-74
2022/11/03 03:05:25;;;;;;;0.10;0.10;;;;;;;10.56;98.70;101156.00;5002949;28;20071;-74
2022/11/03 03:07:53;;;;;;;0.10;0.10;;;;;;;10.53;98.66;101163.41;4997084;28;20410;-77
2022/11/03 03:10:21;;;;;;;0.10;0.10;;;;;;;10.64;99.01;101167.00;5003927;28;20036;-77
2022/11/03 03:12:52;;;;;;;0.10;0.10;;;;;;;10.63;98.30;101133.06;4999770;28;20124;-74
2022/11/03 03:15:18;;;;;;;0.15;0.15;;;;;;;10.53;99.20;101141.91;5002200;28;20120;-78
2022/11/03 03:17:49;;;;;;;0.10;0.10;;;;;;;10.79;97.71;101140.88;5003290;28;20025;-76
2022/11/03 03:20:28;;;;;;;0.10;0.10;;;;;;;10.83;98.27;101160.31;5001231;28;20470;-76
2022/11/03 03:22:59;;;;;;;0.10;0.10;;;;;;;10.44;100.00;101148.81;5007077;28;20049;-79
2022/11/03 03:25:31;;;;;;;0.10;0.10;;;;;;;10.77;98.66;101142.81;4987806;28;20056;-77
2022/11/03 03:28:10;;;;;;;0.10;0.10;;;;;;;10.95;98.11;101151.31;5005725;28;20362;-76
2022/11/03 03:30:36;;;;;;;0.10;0.10;;;;;;;10.73;99.09;101138.63;5006938;28;20362;-77
2022/11/03 03:33:03;;;;;;;0.10;0.10;;;;;;;10.85;98.09;101146.75;4999302;28;20041;-75
2022/11/03 03:35:29;;;;;;;0.10;0.10;;;;;;;10.44;100.00;101124.66;5004009;28;20041;-77
2022/11/03 03:37:59;;;;;;;0.10;0.10;;;;;;;10.76;99.49;101133.03;5021864;28;20537;-76
2022/11/03 03:40:28;;;;;;;0.10;0.10;;;;;;;10.55;100.00;101107.78;5002868;28;20580;-76
2022/11/03 03:42:53;;;;;;;0.10;0.10;;;;;;;10.63;99.71;101102.69;4994884;28;20477;-75
2022/11/03 03:45:19;;;;;;;0.10;0.10;;;;;;;10.64;100.00;101109.78;5006384;28;20044;-76
2022/11/03 03:47:45;;;;;;;0.10;0.10;;;;;;;10.53;100.00;101090.91;5005570;28;20029;-76
2022/11/03 03:50:10;;;;;;;0.10;0.10;;;;;;;10.78;99.36;101088.13;4991896;28;20106;-74
2022/11/03 03:52:36;;;;;;;0.10;0.10;;;;;;;10.96;98.80;101114.59;5021767;28;20294;-77
2022/11/03 03:55:02;;;;;;;0.10;0.10;;;;;;;10.98;99.38;101111.78;5014623;28;20030;-75
2022/11/03 03:57:29;;;;;;;0.10;0.10;;;;;;;10.62;99.91;101088.41;5007968;28;20037;-74
2022/11/03 03:59:55;;;;;;;0.10;0.10;;;;;;;10.82;99.30;101080.72;5012081;28;20111;-75
2022/11/03 04:02:20;;;;;;;0.10;0.10;;;;;;;10.81;99.44;101089.72;5010145;28;20038;-77
2022/11/03 04:04:45;;;;;;;0.10;0.10;;;;;;;11.00;99.27;101097.25;5001307;28;20040;-75
2022/11/03 04:09:54;;;;;;;0.10;0.10;;;;;;;10.77;100.00;101086.41;5023074;28;20044;-75
2022/11/03 04:23:16;;;;;;;0.10;0.10;;;;;;;10.99;100.00;101073.19;5029541;28;19924;-77
2022/11/03 04:25:47;;;;;;;0.10;0.10;;;;;;;11.05;100.00;101078.09;5007837;28;20033;-75
2022/11/03 04:28:13;;;;;;;0.10;0.10;;;;;;;11.13;100.00;101074.81;5027060;28;20029;-78
2022/11/03 04:30:38;;;;;;;0.10;0.10;;;;;;;11.12;100.00;101073.13;5023001;28;20099;-78
2022/11/03 04:33:18;;;;;;;0.10;0.10;;;;;;;10.93;100.00;101050.34;5006788;28;20025;-77
2022/11/03 04:35:45;;;;;;;0.10;0.10;;;;;;;10.98;100.00;101064.28;5007707;28;20037;-77
2022/11/03 04:38:13;;;;;;;0.10;0.10;;;;;;;11.17;100.00;101079.00;5024693;28;20160;-77
2022/11/03 04:40:46;;;;;;;0.10;0.10;;;;;;;10.63;100.00;101044.47;5025690;28;20033;-77
2022/11/03 04:43:14;;;;;;;0.10;0.10;;;;;;;10.71;100.00;101076.13;4988595;28;20427;-75
2022/11/03 04:45:41;;;;;;;0.10;0.10;;;;;;;10.95;100.00;101077.94;5028306;28;20037;-76
2022/11/03 04:48:23;;;;;;;0.10;0.10;;;;;;;11.07;100.00;101062.72;4996803;28;20033;-76
2022/11/03 04:50:52;;;;;;;0.10;0.10;;;;;;;11.14;100.00;101041.59;5011327;28;20353;-76
2022/11/03 04:53:19;;;;;;;0.10;0.10;;;;;;;11.05;100.00;101057.44;5022647;28;20441;-75
2022/11/03 04:55:46;;;;;;;0.10;0.10;;;;;;;10.97;100.00;101042.91;4985134;28;20389;-78
2022/11/03 04:58:34;;;;;;;0.10;0.10;;;;;;;10.83;100.00;101043.94;5007033;28;20059;-78
2022/11/03 05:01:00;;;;;;;0.10;0.10;;;;;;;10.91;100.00;101049.59;5025410;28;20091;-75
2022/11/03 05:03:29;;;;;;;0.10;0.10;;;;;;;11.04;100.00;101042.31;5006154;28;20271;-78
2022/11/03 05:05:54;;;;;;;0.10;0.10;;;;;;;10.78;100.00;101009.38;4990118;28;20033;-76
2022/11/03 05:08:20;;;;;;;0.15;0.15;;;;;;;10.92;100.00;101032.50;5023163;28;20032;-75
2022/11/03 05:10:47;;;;;;;0.10;0.10;;;;;;;10.96;100.00;101031.31;5025973;28;20026;-76
2022/11/03 05:13:21;;;;;;;0.10;0.10;;;;;;;10.97;100.00;101024.97;5005805;28;20059;-75
2022/11/03 05:15:46;;;;;;;0.10;0.10;;;;;;;11.01;100.00;101021.03;5022071;28;20056;-78
2022/11/03 05:18:16;;;;;;;0.10;0.10;;;;;;;11.19;100.00;101037.56;5007004;28;20029;-75
2022/11/03 05:20:48;;;;;;;0.10;0.10;;;;;;;10.91;100.00;101034.31;5004777;28;20025;-76
2022/11/03 05:23:13;;;;;;;0.10;0.10;;;;;;;10.95;100.00;101013.47;5005205;28;20473;-77
2022/11/03 05:25:42;;;;;;;0.10;0.10;;;;;;;11.10;100.00;101011.44;5028949;28;20067;-75
2022/11/03 05:28:24;;;;;;;0.10;0.10;;;;;;;10.88;100.00;100991.56;5008364;28;20083;-77
2022/11/03 05:30:50;;;;;;;0.10;0.10;;;;;;;10.78;100.00;100988.75;5007275;28;20031;-75
2022/11/03 05:33:28;;;;;;;0.10;0.10;;;;;;;10.85;100.00;101012.47;5026316;28;20044;-76
2022/11/03 05:35:54;;;;;;;0.10;0.10;;;;;;;10.80;100.00;100994.84;5020484;28;20528;-74
2022/11/03 05:38:21;;;;;;;0.10;0.10;;;;;;;10.73;100.00;100980.19;5008475;28;20041;-75
2022/11/03 05:40:49;;;;;;;0.10;0.10;;;;;;;11.14;100.00;100990.53;4996450;28;20029;-74
2022/11/03 05:43:15;;;;;;;0.10;0.10;;;;;;;10.93;100.00;100975.97;5021460;28;20116;-74
2022/11/03 05:45:40;;;;;;;0.10;0.10;;;;;;;10.82;100.00;100967.91;4992076;28;20033;-75
2022/11/03 05:48:20;;;;;;;0.13;0.13;;;;;;;10.93;100.00;100986.72;5021739;28;20465;-73
2022/11/03 05:50:45;;;;;;;0.10;0.10;;;;;;;10.91;100.00;100988.66;5007156;28;20468;-74
2022/11/03 05:53:30;;;;;;;0.10;0.10;;;;;;;10.99;100.00;100977.31;5025245;28;20029;-74
2022/11/03 05:55:56;;;;;;;;;;;;;;;11.06;100.00;100977.72;5006365;28;20037;-74
2022/11/03 05:58:25;;;;;;;0.10;0.10;;;;;;;11.02;100.00;100977.06;5014477;28;19928;-78
2022/11/03 06:00:51;;;;;;;0.10;0.10;;;;;;;10.89;100.00;100942.25;5006720;28;20535;-74
2022/11/03 06:03:22;;;;;;;0.10;0.10;;;;;;;11.02;100.00;100965.50;5004147;28;20136;-75
2022/11/03 06:05:47;;;;;;;0.10;0.10;;;;;;;10.75;100.00;100951.38;5006923;28;20038;-73
2022/11/03 06:08:39;;;;;;;0.10;0.10;;;;;;;11.05;100.00;100954.50;5011509;28;20037;-74
2022/11/03 06:11:04;;;;;;;0.10;0.10;;;;;;;10.85;100.00;100948.00;5008794;28;20037;-75
2022/11/03 06:13:33;;;;;;;0.10;0.10;;;;;;;10.80;100.00;100925.03;5022907;28;20635;-76
2022/11/03 06:16:05;;;;;;;0.10;0.10;;;;;;;10.90;100.00;100938.59;5026688;28;20155;-74
2022/11/03 06:18:34;;;;;;;0.10;0.10;;;;;;;10.83;100.00;100940.06;4986012;28;20056;-75
2022/11/03 06:21:08;;;;;;;0.10;0.10;;;;;;;10.97;100.00;100936.31;4995155;28;20021;-75
2022/11/03 06:23:35;;;;;;;0.10;0.10;;;;;;;11.04;100.00;100940.19;5000453;28;20099;-77
2022/11/03 06:26:01;;;;;;;0.08;0.08;;;;;;;11.05;100.00;100939.22;4992451;28;20066;-77
2022/11/03 06:28:35;;;;;;;0.10;0.10;;;;;;;11.13;100.00;100933.25;5002693;28;20026;-76
2022/11/03 06:31:00;;;;;;;0.20;0.20;;;;;;;10.85;100.00;100934.56;5001774;28;20021;-76
2022/11/03 06:33:27;;;;;;;0.10;0.10;;;;;;;11.09;100.00;100939.88;4998185;28;20032;-77
2022/11/03 06:35:55;;;;;;;0.10;0.10;;;;;;;10.95;100.00;100924.81;5003329;28;20079;-79
2022/11/03 06:38:26;;;;;;;0.10;0.10;;;;;;;11.01;100.00;100907.34;4984353;28;20033;-77
2022/11/03 06:40:52;;;;;;;0.10;0.10;;;;;;;11.16;100.00;100919.56;5004329;28;20489;-74
2022/11/03 06:43:23;;;;;;;0.10;0.10;;;;;;;11.09;100.00;100929.94;4978606;28;20120;-76
2022/11/03 06:45:56;;;;;;;0.10;0.10;;;;;;;11.16;100.00;100926.78;5010422;28;20025;-75
2022/11/03 06:48:24;;;;;;;0.10;0.10;;;;;;;11.17;100.00;100915.06;4991292;28;20029;-79
2022/11/03 06:50:50;;;;;;;0.17;0.17;;;;;;;10.96;100.00;100915.78;5003104;28;20289;-77
2022/11/03 06:53:25;;;;;;;0.10;0.10;;;;;;;10.66;100.00;100903.78;4983486;28;20017;-76
2022/11/03 06:55:50;;;;;;;0.10;0.10;;;;;;;10.72;100.00;100908.69;4989567;28;20025;-76
2022/11/03 06:58:26;;;;;;;0.10;0.10;;;;;;;10.96;100.00;100905.03;4998212;28;20420;-76
2022/11/03 07:00:53;;;;;;;0.00;0.00;;;;;;;10.98;100.00;100886.97;4987606;28;20033;-75
2022/11/03 07:03:25;;;;;;;0.20;0.20;;;;;;;11.10;100.00;100910.16;5001035;28;20029;-76
2022/11/03 07:05:55;;;;;;;0.10;0.10;;;;;;;11.22;100.00;100892.22;5014556;28;20075;-75
2022/11/03 07:08:42;;;;;;;0.10;0.10;;;;;;;11.26;100.00;100906.25;5024235;28;20060;-75
2022/11/03 07:11:16;;;;;;;0.10;0.10;;;;;;;11.03;100.00;100887.44;4986654;28;20025;-75
2022/11/03 07:13:42;;;;;;;0.10;0.10;;;;;;;10.96;100.00;100883.56;5003042;28;20029;-77
2022/11/03 07:16:30;;;;;;;0.15;0.15;;;;;;;10.98;100.00;100889.66;5010726;28;20072;-78
2022/11/03 07:18:58;;;;;;;0.17;0.17;;;;;;;11.04;100.00;100893.69;5009054;28;20275;-75
2022/11/03 07:21:30;;;;;;;0.13;0.13;;;;;;;11.14;100.00;100907.25;4988233;28;20071;-77
2022/11/03 07:23:57;;;;;;;0.10;0.10;;;;;;;11.38;100.00;100902.59;5005489;28;20033;-76
2022/11/03 07:26:23;;;;;;;0.10;0.10;;;;;;;11.33;100.00;100888.66;5003832;28;20033;-79
2022/11/03 07:28:48;;;;;;;0.10;0.10;;;;;;;11.42;100.00;100900.50;5024177;28;20036;-73
2022/11/03 07:31:22;;;;;;;0.10;0.10;;;;;;;11.33;100.00;100896.72;5006293;28;20021;-76
2022/11/03 07:33:47;;;;;;;0.10;0.10;;;;;;;11.28;100.00;100860.44;5009778;28;20040;-79
2022/11/03 07:36:18;;;;;;;0.08;0.08;;;;;;;11.40;100.00;100860.31;4997299;28;20034;-76
2022/11/03 07:38:45;;;;;;;0.00;0.00;;;;;;;11.20;100.00;100861.91;5011033;28;20121;-73
2022/11/03 07:41:15;;;;;;;0.10;0.10;;;;;;;11.51;100.00;100893.56;4998846;28;20030;-76
2022/11/03 07:43:41;;;;;;;0.10;0.10;;;;;;;11.87;100.00;100890.66;4995325;28;20130;-76
2022/11/03 07:46:14;;;;;;;0.10;0.10;;;;;;;11.72;100.00;100874.78;5015408;28;20493;-75
2022/11/03 07:48:44;;;;;;;0.10;0.10;;;;;;;11.65;100.00;100866.38;4986515;28;20517;-75
2022/11/03 07:51:19;;;;;;;0.10;0.10;;;;;;;11.64;100.00;100875.44;5008163;28;20033;-75
2022/11/03 07:53:45;;;;;;;0.10;0.10;;;;;;;11.83;100.00;100872.09;5020477;28;20067;-77
2022/11/03 07:56:21;;;;;;;0.10;0.10;;;;;;;11.65;100.00;100869.06;5003723;28;20067;-76
2022/11/03 07:59:10;;;;;;;0.10;0.10;;;;;;;11.85;100.00;100874.63;5020180;28;20034;-78
2022/11/03 08:01:37;;;;;;;0.15;0.15;;;;;;;11.76;100.00;100875.41;5014906;28;20038;-75
2022/11/03 08:04:16;;;;;;;0.10;0.10;;;;;;;11.93;100.00;100861.41;5019176;28;20025;-79
2022/11/03 08:06:42;;;;;;;0.08;0.08;;;;;;;11.80;100.00;100860.69;5006668;28;20065;-75
2022/11/03 08:09:07;;;;;;;0.10;0.10;;;;;;;12.08;100.00;100870.06;5027363;28;20065;-75
2022/11/03 08:11:32;;;;;;;0.00;0.00;;;;;;;11.96;100.00;100858.47;5000212;28;20025;-77
2022/11/03 08:13:58;;;;;;;0.10;0.10;;;;;;;12.04;100.00;100878.53;5022122;28;20040;-78
2022/11/03 08:16:23;;;;;;;0.10;0.10;;;;;;;11.90;100.00;100864.34;5022099;28;20052;-75
2022/11/03 08:18:48;;;;;;;0.10;0.10;;;;;;;11.82;100.00;100850.66;5018352;28;20083;-75
2022/11/03 08:21:14;;;;;;;0.10;0.10;;;;;;;12.10;100.00;100859.16;5004104;28;20041;-74
2022/11/03 08:23:39;;;;;;;0.10;0.10;;;;;;;11.98;100.00;100848.44;5018862;28;20030;-76
2022/11/03 08:26:05;;;;;;;0.10;0.10;;;;;;;12.11;100.00;100868.94;5004843;28;20087;-76
2022/11/03 08:28:31;;;;;;;0.05;0.05;;;;;;;12.08;100.00;100842.28;5002760;28;20021;-77
2022/11/03 08:31:03;;;;;;;0.10;0.10;;;;;;;12.11;100.00;100821.38;5004341;28;20374;-78
2022/11/03 08:33:30;;;;;;;0.10;0.10;;;;;;;12.25;99.39;100800.47;5023716;28;20500;-77
2022/11/03 08:35:55;;;;;;;0.10;0.10;;;;;;;12.24;100.00;100801.47;5006174;28;20124;-76
2022/11/03 08:38:21;;;;;;;0.00;0.00;;;;;;;12.39;99.37;100815.44;5020197;28;20141;-76
2022/11/03 08:40:46;;;;;;;0.10;0.10;;;;;;;12.38;99.29;100803.84;5019822;28;20457;-75
2022/11/03 08:43:11;;;;;;;0.03;0.03;;;;;;;12.55;98.98;100807.78;4994714;28;20049;-77
2022/11/03 08:45:37;;;;;;;0.10;0.10;;;;;;;12.08;100.00;100783.09;4989068;28;20053;-78
2022/11/03 08:48:02;;;;;;;0.10;0.10;;;;;;;12.26;100.00;100770.75;5004609;28;20086;-76
2022/11/03 08:50:27;;;;;;;0.10;0.10;;;;;;;12.51;99.50;100775.84;5004657;28;20031;-76
2022/11/03 08:52:53;;;;;;;0.10;0.10;;;;;;;12.62;98.48;100773.06;5016655;28;20028;-75
2022/11/03 08:55:18;;;;;;;0.00;0.00;;;;;;;12.59;98.88;100767.94;5026585;28;20049;-78
2022/11/03 08:57:43;;;;;;;0.10;0.10;;;;;;;12.72;98.20;100768.56;5021964;28;20033;-76
2022/11/03 09:00:09;;;;;;;0.10;0.10;;;;;;;12.60;99.33;100762.41;5017340;28;20029;-76
2022/11/03 09:02:35;;;;;;;0.10;0.10;;;;;;;12.52;99.78;100756.88;5005603;28;20504;-76
2022/11/03 09:05:00;;;;;;;0.10;0.10;;;;;;;12.40;100.00;100739.06;5027330;28;20033;-76
2022/11/03 09:07:25;;;;;;;0.00;0.00;;;;;;;12.39;99.49;100738.25;5020068;28;20034;-76
2022/11/03 09:09:50;;;;;;;0.10;0.10;;;;;;;12.42;98.51;100719.13;5019963;28;20051;-76
2022/11/03 09:12:16;;;;;;;0.10;0.10;;;;;;;12.47;99.09;100699.88;5025719;28;20030;-79
2022/11/03 09:14:41;;;;;;;0.00;0.00;;;;;;;12.66;96.97;100706.31;5016127;28;20037;-77
2022/11/03 09:17:07;;;;;;;0.10;0.10;;;;;;;12.73;97.23;100708.31;5019808;28;20069;-77
2022/11/03 09:19:32;;;;;;;0.10;0.10;;;;;;;12.86;97.49;100707.22;5017073;28;20029;-78
2022/11/03 09:21:59;;;;;;;0.10;0.10;;;;;;;12.66;97.89;100682.06;5004766;28;20429;-76
2022/11/03 09:24:25;;;;;;;0.10;0.10;;;;;;;12.95;97.88;100713.63;5009206;28;20019;-74
2022/11/03 09:26:50;;;;;;;0.10;0.10;;;;;;;12.88;97.64;100695.31;5022181;28;20036;-78
2022/11/03 09:29:15;;;;;;;0.00;0.00;;;;;;;12.97;97.36;100680.19;5002031;28;20018;-76
2022/11/03 09:31:41;;;;;;;0.10;0.10;;;;;;;12.97;96.18;100665.84;5020927;28;20033;-77
2022/11/03 09:34:06;;;;;;;0.10;0.10;;;;;;;13.03;94.65;100682.28;5001805;28;20469;-75
2022/11/03 09:36:32;;;;;;;0.00;0.00;;;;;;;12.75;97.64;100646.22;5024202;28;20091;-79
2022/11/03 09:38:57;;;;;;;0.10;0.10;;;;;;;12.88;96.41;100654.88;5006611;28;20532;-76
2022/11/03 09:41:22;;;;;;;0.10;0.10;;;;;;;12.76;95.15;100621.00;5005927;28;20079;-77
2022/11/03 09:43:48;;;;;;;0.10;0.10;;;;;;;13.11;93.61;100600.72;5022488;28;20029;-78
2022/11/03 09:46:14;;;;;;;0.10;0.10;;;;;;;13.14;94.03;100629.25;5020535;28;20021;-75
2022/11/03 09:48:40;;;;;;;0.10;0.10;;;;;;;13.34;93.14;100635.50;5023241;28;20086;-75
2022/11/03 09:51:08;;;;;;;0.10;0.10;;;;;;;13.09;94.46;100613.53;5020941;28;20112;-75
2022/11/03 09:53:33;;;;;;;0.10;0.10;;;;;;;13.05;94.50;100588.66;5001484;28;20022;-74
2022/11/03 09:55:59;;;;;;;0.10;0.10;;;;;;;13.25;94.44;100621.00;4998555;28;20367;-76
2022/11/03 09:58:25;;;;;;;0.10;0.10;;;;;;;13.20;94.20;100613.34;5024762;28;20057;-75
2022/11/03 10:00:50;;;;;;;0.08;0.08;;;;;;;12.98;95.58;100589.38;5003099;28;20064;-77
2022/11/03 10:03:16;;;;;;;0.00;0.00;;;;;;;13.29;94.30;100618.91;5022612;28;20381;-77
2022/11/03 10:05:43;;;;;;;0.10;0.10;;;;;;;13.00;95.78;100600.88;5023182;28;20037;-76
2022/11/03 10:08:24;;;;;;;0.03;0.03;;;;;;;13.27;94.21;100600.16;5004834;28;20049;-77
2022/11/03 10:10:51;;;;;;;0.10;0.10;;;;;;;13.08;95.06;100592.94;5022726;28;20033;-77
2022/11/03 10:13:37;;;;;;;0.05;0.05;;;;;;;13.32;94.23;100597.03;5024122;28;20167;-74
2022/11/03 10:16:05;;;;;;;0.10;0.10;;;;;;;13.45;92.80;100597.63;5003031;28;20075;-73
2022/11/03 10:18:31;;;;;;;0.10;0.10;;;;;;;13.19;93.52;100544.25;5016460;28;20035;-78
2022/11/03 10:21:01;;;;;;;0.00;0.00;;;;;;;13.01;95.92;100571.06;5020180;28;20049;-77
2022/11/03 10:23:26;;;;;;;0.10;0.10;;;;;;;13.24;93.81;100569.94;5022220;28;20489;-74
2022/11/03 10:26:02;;;;;;;0.00;0.00;;;;;;;13.45;91.84;100570.66;5022005;28;20025;-76
2022/11/03 10:28:27;;;;;;;0.10;0.10;;;;;;;13.39;92.70;100560.41;5001888;28;20517;-74
2022/11/03 10:31:00;;;;;;;0.05;0.05;;;;;;;13.10;94.28;100565.84;5018607;28;20034;-75
2022/11/03 10:33:30;;;;;;;0.10;0.10;;;;;;;13.08;92.34;100559.75;5009931;28;20393;-76
2022/11/03 10:35:57;;;;;;;0.00;0.00;;;;;;;13.14;93.78;100548.38;5026772;28;20049;-75
2022/11/03 10:38:35;;;;;;;0.08;0.08;;;;;;;13.35;90.35;100535.59;5010799;28;20692;-75
2022/11/03 10:41:17;;;;;;;0.10;0.10;;;;;;;13.31;91.55;100536.84;5023537;28;20032;-76
2022/11/03 10:43:53;;;;;;;0.10;0.10;;;;;;;13.33;89.95;100526.78;5010640;28;20033;-74
2022/11/03 10:46:21;;;;;;;0.10;0.10;;;;;;;13.18;91.04;100503.97;5003632;28;20098;-77
2022/11/03 10:49:15;;;;;;;0.10;0.10;;;;;;;13.28;90.44;100518.28;5015531;28;20041;-78
2022/11/03 10:51:42;;;;;;;0.10;0.10;;;;;;;13.09;91.73;100503.00;5020900;28;20159;-81
2022/11/03 10:54:15;;;;;;;0.10;0.10;;;;;;;13.10;91.07;100477.75;4999900;28;20392;-76
2022/11/03 10:56:41;;;;;;;0.10;0.10;;;;;;;13.24;90.78;100498.03;5016844;28;20029;-77
2022/11/03 10:59:21;;;;;;;0.00;0.00;;;;;;;13.29;90.42;100506.50;5018261;28;20039;-74
2022/11/03 11:01:47;;;;;;;0.10;0.10;;;;;;;13.20;91.13;100493.91;5016759;28;20037;-76
2022/11/03 11:04:17;;;;;;;0.10;0.10;;;;;;;13.49;90.35;100493.00;5012261;28;20031;-77
2022/11/03 11:06:43;;;;;;;0.08;0.08;;;;;;;13.43;91.55;100491.72;5000450;28;20033;-77
2022/11/03 11:09:11;;;;;;;0.10;0.10;;;;;;;13.53;88.20;100488.16;5020959;28;20025;-76
2022/11/03 11:11:36;;;;;;;0.10;0.10;;;;;;;13.83;86.13;100484.34;5002274;28;20029;-76
2022/11/03 11:14:27;;;;;;;0.00;0.00;;;;;;;13.95;86.26;100487.69;5019327;28;20049;-78
2022/11/03 11:16:56;;;;;;;0.10;0.10;;;;;;;13.83;84.82;100487.03;5023770;28;20534;-76
2022/11/03 11:19:23;;;;;;;0.10;0.10;;;;;;;14.12;83.18;100482.50;5003258;28;20033;-78
2022/11/03 11:21:52;;;;;;;0.10;0.10;;;;;;;13.94;85.51;100470.66;5005348;28;20028;-76
2022/11/03 11:24:42;;;;;;;0.00;0.00;;;;;;;13.86;85.65;100488.59;5021444;28;20037;-75
2022/11/03 11:27:35;;;;;;;0.03;0.03;;;;;;;14.12;82.42;100469.00;5020990;28;20025;-77
2022/11/03 11:30:21;;;;;;;0.10;0.10;;;;;;;14.36;79.48;100457.56;5022580;28;20037;-77
2022/11/03 11:32:57;;;;;;;0.10;0.10;;;;;;;14.20;81.00;100442.06;4977912;28;20054;-78
2022/11/03 11:35:23;;;;;;;0.10;0.10;;;;;;;14.05;83.89;100464.19;5003094;28;20043;-72
2022/11/03 11:37:49;;;;;;;0.08;0.08;;;;;;;14.20;80.32;100452.84;5019323;28;20091;-74
2022/11/03 11:40:23;;;;;;;0.10;0.10;;;;;;;14.47;78.55;100434.88;5025003;28;20765;-78
2022/11/03 11:43:12;;;;;;;0.10;0.10;;;;;;;14.24;79.93;100441.63;5020417;28;20445;-74
2022/11/03 11:46:15;;;;;;;0.10;0.10;;;;;;;14.44;78.70;100432.50;5024836;28;20096;-75
2022/11/03 11:48:40;;;;;;;0.10;0.10;;;;;;;14.49;79.26;100403.19;5023135;28;20388;-75
2022/11/03 11:51:08;;;;;;;0.00;0.00;;;;;;;14.58;76.06;100398.69;5001426;28;20032;-77
2022/11/03 11:53:38;;;;;;;0.10;0.10;;;;;;;14.52;76.24;100386.66;5003480;28;20060;-76